sensor_id;sensor_type;location;lat;lon;timestamp;temperature;humidity
19847;DHT22;10084;50.518;8.588;2024-02-26T00:01:36;5.20;89.60
19847;DHT22;10084;50.518;8.588;2024-02-26T00:04:02;5.30;89.60
19847;DHT22;10084;50.518;8.588;2024-02-26T00:06:29;5.30;89.60
19847;DHT22;10084;50.518;8.588;2024-02-26T00:08:55;5.30;89.60
19847;DHT22;10084;50.518;8.588;2024-02-26T00:11:20;5.30;89.60
19847;DHT22;10084;50.518;8.588;2024-02-26T00:13:46;5.40;89.60
19847;DHT22;10084;50.518;8.588;2024-02-26T00:16:12;5.40;89.70
19847;DHT22;10084;50.518;8.588;2024-02-26T00:18:37;5.50;89.70
19847;DHT22;10084;50.518;8.588;2024-02-26T00:21:03;5.50;89.60
19847;DHT22;10084;50.518;8.588;2024-02-26T00:23:29;5.50;89.50
19847;DHT22;10084;50.518;8.588;2024-02-26T00:25:55;5.50;89.50
19847;DHT22;10084;50.518;8.588;2024-02-26T00:28:21;5.60;89.60
19847;DHT22;10084;50.518;8.588;2024-02-26T00:30:47;5.60;89.60
19847;DHT22;10084;50.518;8.588;2024-02-26T00:33:15;5.60;90.10
19847;DHT22;10084;50.518;8.588;2024-02-26T00:35:40;5.60;89.60
19847;DHT22;10084;50.518;8.588;2024-02-26T00:38:06;5.60;89.60
19847;DHT22;10084;50.518;8.588;2024-02-26T00:40:32;5.60;89.70
19847;DHT22;10084;50.518;8.588;2024-02-26T00:42:58;5.70;89.60
19847;DHT22;10084;50.518;8.588;2024-02-26T00:45:24;5.70;89.70
19847;DHT22;10084;50.518;8.588;2024-02-26T00:47:49;5.70;89.60
19847;DHT22;10084;50.518;8.588;2024-02-26T00:50:15;5.70;89.60
19847;DHT22;10084;50.518;8.588;2024-02-26T00:52:41;5.70;89.60
19847;DHT22;10084;50.518;8.588;2024-02-26T00:55:07;5.70;89.70
19847;DHT22;10084;50.518;8.588;2024-02-26T00:57:33;5.70;89.80
19847;DHT22;10084;50.518;8.588;2024-02-26T00:59:59;5.70;90.10
19847;DHT22;10084;50.518;8.588;2024-02-26T01:02:26;5.70;89.60
19847;DHT22;10084;50.518;8.588;2024-02-26T01:04:52;5.70;89.50
19847;DHT22;10084;50.518;8.588;2024-02-26T01:07:18;5.70;89.60
19847;DHT22;10084;50.518;8.588;2024-02-26T01:09:44;5.70;89.50
19847;DHT22;10084;50.518;8.588;2024-02-26T01:12:10;5.70;89.60
19847;DHT22;10084;50.518;8.588;2024-02-26T01:14:35;5.70;89.60
19847;DHT22;10084;50.518;8.588;2024-02-26T01:17:01;5.70;89.60
19847;DHT22;10084;50.518;8.588;2024-02-26T01:19:27;5.70;89.60
19847;DHT22;10084;50.518;8.588;2024-02-26T01:21:53;5.70;89.60
19847;DHT22;10084;50.518;8.588;2024-02-26T01:24:18;5.80;89.60
19847;DHT22;10084;50.518;8.588;2024-02-26T01:26:44;5.80;89.60
19847;DHT22;10084;50.518;8.588;2024-02-26T01:29:10;5.80;89.60
19847;DHT22;10084;50.518;8.588;2024-02-26T01:31:35;5.80;89.60
19847;DHT22;10084;50.518;8.588;2024-02-26T01:34:01;5.80;89.60
19847;DHT22;10084;50.518;8.588;2024-02-26T01:36:27;5.90;89.60
19847;DHT22;10084;50.518;8.588;2024-02-26T01:38:53;5.90;89.60
19847;DHT22;10084;50.518;8.588;2024-02-26T01:41:18;5.90;89.50
19847;DHT22;10084;50.518;8.588;2024-02-26T01:43:44;5.90;89.50
19847;DHT22;10084;50.518;8.588;2024-02-26T01:46:13;5.90;89.50
19847;DHT22;10084;50.518;8.588;2024-02-26T01:48:43;5.90;89.40
19847;DHT22;10084;50.518;8.588;2024-02-26T01:51:10;5.90;89.50
19847;DHT22;10084;50.518;8.588;2024-02-26T01:53:38;5.90;89.50
19847;DHT22;10084;50.518;8.588;2024-02-26T01:56:04;5.90;89.50
19847;DHT22;10084;50.518;8.588;2024-02-26T01:58:30;5.90;89.60
19847;DHT22;10084;50.518;8.588;2024-02-26T02:00:57;5.80;89.50
19847;DHT22;10084;50.518;8.588;2024-02-26T02:03:23;5.80;89.50
19847;DHT22;10084;50.518;8.588;2024-02-26T02:05:49;5.70;89.50
19847;DHT22;10084;50.518;8.588;2024-02-26T02:08:15;5.70;89.60
19847;DHT22;10084;50.518;8.588;2024-02-26T02:10:42;5.70;89.60
19847;DHT22;10084;50.518;8.588;2024-02-26T02:13:07;5.70;89.70
19847;DHT22;10084;50.518;8.588;2024-02-26T02:15:33;5.60;89.60
19847;DHT22;10084;50.518;8.588;2024-02-26T02:17:59;5.60;89.80
19847;DHT22;10084;50.518;8.588;2024-02-26T02:20:31;5.60;89.80
19847;DHT22;10084;50.518;8.588;2024-02-26T02:22:58;5.60;90.00
19847;DHT22;10084;50.518;8.588;2024-02-26T02:25:24;5.60;89.80
19847;DHT22;10084;50.518;8.588;2024-02-26T02:27:50;5.60;90.00
19847;DHT22;10084;50.518;8.588;2024-02-26T02:30:16;5.60;89.80
19847;DHT22;10084;50.518;8.588;2024-02-26T02:32:42;5.60;90.00
19847;DHT22;10084;50.518;8.588;2024-02-26T02:35:08;5.60;90.00
19847;DHT22;10084;50.518;8.588;2024-02-26T02:37:34;5.60;90.00
19847;DHT22;10084;50.518;8.588;2024-02-26T02:39:59;5.60;90.00
19847;DHT22;10084;50.518;8.588;2024-02-26T02:42:26;5.60;90.00
19847;DHT22;10084;50.518;8.588;2024-02-26T02:44:52;5.60;90.20
19847;DHT22;10084;50.518;8.588;2024-02-26T02:47:17;5.60;89.90
19847;DHT22;10084;50.518;8.588;2024-02-26T02:49:43;5.60;90.00
19847;DHT22;10084;50.518;8.588;2024-02-26T02:52:09;5.60;90.00
19847;DHT22;10084;50.518;8.588;2024-02-26T02:54:34;5.60;90.00
19847;DHT22;10084;50.518;8.588;2024-02-26T02:57:03;5.60;89.90
19847;DHT22;10084;50.518;8.588;2024-02-26T02:59:28;5.60;89.80
19847;DHT22;10084;50.518;8.588;2024-02-26T03:01:54;5.60;89.80
19847;DHT22;10084;50.518;8.588;2024-02-26T03:04:20;5.60;89.80
19847;DHT22;10084;50.518;8.588;2024-02-26T03:06:45;5.60;89.80
19847;DHT22;10084;50.518;8.588;2024-02-26T03:09:11;5.60;90.00
19847;DHT22;10084;50.518;8.588;2024-02-26T03:11:37;5.60;90.10
19847;DHT22;10084;50.518;8.588;2024-02-26T03:14:02;5.60;90.10
19847;DHT22;10084;50.518;8.588;2024-02-26T03:16:29;5.60;90.00
19847;DHT22;10084;50.518;8.588;2024-02-26T03:18:55;5.60;90.00
19847;DHT22;10084;50.518;8.588;2024-02-26T03:21:21;5.60;90.00
19847;DHT22;10084;50.518;8.588;2024-02-26T03:23:46;5.60;90.00
19847;DHT22;10084;50.518;8.588;2024-02-26T03:26:12;5.60;90.10
19847;DHT22;10084;50.518;8.588;2024-02-26T03:28:40;5.60;90.10
19847;DHT22;10084;50.518;8.588;2024-02-26T03:31:06;5.60;90.10
19847;DHT22;10084;50.518;8.588;2024-02-26T03:33:31;5.60;90.10
19847;DHT22;10084;50.518;8.588;2024-02-26T03:35:57;5.60;90.10
19847;DHT22;10084;50.518;8.588;2024-02-26T03:38:23;5.60;90.10
19847;DHT22;10084;50.518;8.588;2024-02-26T03:40:48;5.60;90.10
19847;DHT22;10084;50.518;8.588;2024-02-26T03:43:14;5.70;90.10
19847;DHT22;10084;50.518;8.588;2024-02-26T03:45:40;5.70;90.00
19847;DHT22;10084;50.518;8.588;2024-02-26T03:48:06;5.70;90.10
19847;DHT22;10084;50.518;8.588;2024-02-26T03:50:32;5.70;90.10
19847;DHT22;10084;50.518;8.588;2024-02-26T03:52:58;5.70;90.40
19847;DHT22;10084;50.518;8.588;2024-02-26T03:55:24;5.80;90.10
19847;DHT22;10084;50.518;8.588;2024-02-26T03:57:51;5.80;90.10
19847;DHT22;10084;50.518;8.588;2024-02-26T04:00:17;5.80;90.10
19847;DHT22;10084;50.518;8.588;2024-02-26T04:02:43;5.80;90.10
19847;DHT22;10084;50.518;8.588;2024-02-26T04:05:10;5.90;90.10
19847;DHT22;10084;50.518;8.588;2024-02-26T04:07:36;5.90;90.10
19847;DHT22;10084;50.518;8.588;2024-02-26T04:10:02;5.90;90.10
19847;DHT22;10084;50.518;8.588;2024-02-26T04:12:30;5.90;90.10
19847;DHT22;10084;50.518;8.588;2024-02-26T04:14:56;5.80;90.10
19847;DHT22;10084;50.518;8.588;2024-02-26T04:17:21;5.80;90.20
19847;DHT22;10084;50.518;8.588;2024-02-26T04:19:47;5.80;90.20
19847;DHT22;10084;50.518;8.588;2024-02-26T04:22:13;5.80;90.30
19847;DHT22;10084;50.518;8.588;2024-02-26T04:24:38;5.80;90.20
19847;DHT22;10084;50.518;8.588;2024-02-26T04:27:04;5.80;90.50
19847;DHT22;10084;50.518;8.588;2024-02-26T04:29:30;5.80;90.20
19847;DHT22;10084;50.518;8.588;2024-02-26T04:31:56;5.80;90.20
19847;DHT22;10084;50.518;8.588;2024-02-26T04:34:21;5.90;90.20
19847;DHT22;10084;50.518;8.588;2024-02-26T04:36:47;5.90;90.20
19847;DHT22;10084;50.518;8.588;2024-02-26T04:39:13;5.90;90.20
19847;DHT22;10084;50.518;8.588;2024-02-26T04:41:39;5.90;90.20
19847;DHT22;10084;50.518;8.588;2024-02-26T04:44:05;5.80;90.20
19847;DHT22;10084;50.518;8.588;2024-02-26T04:46:31;5.80;90.20
19847;DHT22;10084;50.518;8.588;2024-02-26T04:48:57;5.90;90.60
19847;DHT22;10084;50.518;8.588;2024-02-26T04:51:24;5.90;90.30
19847;DHT22;10084;50.518;8.588;2024-02-26T04:53:49;5.90;90.30
19847;DHT22;10084;50.518;8.588;2024-02-26T04:56:15;5.90;90.20
19847;DHT22;10084;50.518;8.588;2024-02-26T04:58:41;5.90;90.20
19847;DHT22;10084;50.518;8.588;2024-02-26T05:01:07;5.90;90.20
19847;DHT22;10084;50.518;8.588;2024-02-26T05:03:32;5.90;90.20
19847;DHT22;10084;50.518;8.588;2024-02-26T05:05:58;6.00;90.20
19847;DHT22;10084;50.518;8.588;2024-02-26T05:08:24;5.90;90.20
19847;DHT22;10084;50.518;8.588;2024-02-26T05:10:49;6.00;90.30
19847;DHT22;10084;50.518;8.588;2024-02-26T05:13:15;5.90;90.30
19847;DHT22;10084;50.518;8.588;2024-02-26T05:15:43;5.90;90.30
19847;DHT22;10084;50.518;8.588;2024-02-26T05:18:10;5.90;90.30
19847;DHT22;10084;50.518;8.588;2024-02-26T05:20:36;5.90;90.40
19847;DHT22;10084;50.518;8.588;2024-02-26T05:23:03;5.90;90.40
19847;DHT22;10084;50.518;8.588;2024-02-26T05:25:29;5.90;90.40
19847;DHT22;10084;50.518;8.588;2024-02-26T05:27:55;5.90;90.40
19847;DHT22;10084;50.518;8.588;2024-02-26T05:30:21;5.90;90.40
19847;DHT22;10084;50.518;8.588;2024-02-26T05:32:47;5.90;90.40
19847;DHT22;10084;50.518;8.588;2024-02-26T05:35:12;5.90;90.40
19847;DHT22;10084;50.518;8.588;2024-02-26T05:37:38;5.90;90.40
19847;DHT22;10084;50.518;8.588;2024-02-26T05:40:05;5.90;90.40
19847;DHT22;10084;50.518;8.588;2024-02-26T05:42:31;5.90;90.40
19847;DHT22;10084;50.518;8.588;2024-02-26T05:44:57;6.00;90.40
19847;DHT22;10084;50.518;8.588;2024-02-26T05:47:23;6.00;90.40
19847;DHT22;10084;50.518;8.588;2024-02-26T05:49:49;6.00;90.40
19847;DHT22;10084;50.518;8.588;2024-02-26T05:52:14;6.00;90.50
19847;DHT22;10084;50.518;8.588;2024-02-26T05:54:40;6.00;90.50
19847;DHT22;10084;50.518;8.588;2024-02-26T05:57:06;6.00;90.50
19847;DHT22;10084;50.518;8.588;2024-02-26T05:59:32;6.00;90.40
19847;DHT22;10084;50.518;8.588;2024-02-26T06:01:57;6.00;90.40
19847;DHT22;10084;50.518;8.588;2024-02-26T06:04:23;6.00;90.40
19847;DHT22;10084;50.518;8.588;2024-02-26T06:06:48;6.00;90.40
19847;DHT22;10084;50.518;8.588;2024-02-26T06:09:15;6.00;90.40
19847;DHT22;10084;50.518;8.588;2024-02-26T06:11:41;6.10;90.50
19847;DHT22;10084;50.518;8.588;2024-02-26T06:14:06;6.10;90.60
19847;DHT22;10084;50.518;8.588;2024-02-26T06:16:32;6.10;90.50
19847;DHT22;10084;50.518;8.588;2024-02-26T06:18:59;6.10;90.50
19847;DHT22;10084;50.518;8.588;2024-02-26T06:21:25;6.10;90.50
19847;DHT22;10084;50.518;8.588;2024-02-26T06:23:51;6.10;90.50
19847;DHT22;10084;50.518;8.588;2024-02-26T06:26:17;6.10;90.50
19847;DHT22;10084;50.518;8.588;2024-02-26T06:28:43;6.10;90.60
19847;DHT22;10084;50.518;8.588;2024-02-26T06:31:08;6.10;90.60
19847;DHT22;10084;50.518;8.588;2024-02-26T06:33:34;6.20;90.50
19847;DHT22;10084;50.518;8.588;2024-02-26T06:36:00;6.20;90.60
19847;DHT22;10084;50.518;8.588;2024-02-26T06:38:26;6.20;90.60
19847;DHT22;10084;50.518;8.588;2024-02-26T06:40:51;6.20;90.60
19847;DHT22;10084;50.518;8.588;2024-02-26T06:43:17;6.20;90.60
19847;DHT22;10084;50.518;8.588;2024-02-26T06:45:43;6.20;90.60
19847;DHT22;10084;50.518;8.588;2024-02-26T06:48:09;6.20;90.70
19847;DHT22;10084;50.518;8.588;2024-02-26T06:50:34;6.20;90.70
19847;DHT22;10084;50.518;8.588;2024-02-26T06:53:00;6.20;90.70
19847;DHT22;10084;50.518;8.588;2024-02-26T06:55:26;6.20;90.70
19847;DHT22;10084;50.518;8.588;2024-02-26T06:57:52;6.20;90.70
19847;DHT22;10084;50.518;8.588;2024-02-26T07:00:17;6.20;90.70
19847;DHT22;10084;50.518;8.588;2024-02-26T07:02:43;6.20;90.40
19847;DHT22;10084;50.518;8.588;2024-02-26T07:05:09;6.20;89.20
19847;DHT22;10084;50.518;8.588;2024-02-26T07:07:35;6.20;89.40
19847;DHT22;10084;50.518;8.588;2024-02-26T07:10:01;6.20;89.40
19847;DHT22;10084;50.518;8.588;2024-02-26T07:12:30;6.30;89.40
19847;DHT22;10084;50.518;8.588;2024-02-26T07:14:55;6.30;89.30
19847;DHT22;10084;50.518;8.588;2024-02-26T07:17:21;6.30;89.10
19847;DHT22;10084;50.518;8.588;2024-02-26T07:19:47;6.30;89.00
19847;DHT22;10084;50.518;8.588;2024-02-26T07:22:12;6.30;88.90
19847;DHT22;10084;50.518;8.588;2024-02-26T07:24:39;6.30;89.00
19847;DHT22;10084;50.518;8.588;2024-02-26T07:27:04;6.30;89.20
19847;DHT22;10084;50.518;8.588;2024-02-26T07:29:30;6.30;89.20
19847;DHT22;10084;50.518;8.588;2024-02-26T07:31:56;6.30;89.30
19847;DHT22;10084;50.518;8.588;2024-02-26T07:34:22;6.30;89.30
19847;DHT22;10084;50.518;8.588;2024-02-26T07:36:53;6.30;89.40
19847;DHT22;10084;50.518;8.588;2024-02-26T07:39:19;6.30;89.50
19847;DHT22;10084;50.518;8.588;2024-02-26T07:41:45;6.30;89.60
19847;DHT22;10084;50.518;8.588;2024-02-26T07:44:13;6.30;89.90
19847;DHT22;10084;50.518;8.588;2024-02-26T07:46:39;6.30;90.00
19847;DHT22;10084;50.518;8.588;2024-02-26T07:49:05;6.20;90.00
19847;DHT22;10084;50.518;8.588;2024-02-26T07:51:30;6.20;90.00
19847;DHT22;10084;50.518;8.588;2024-02-26T07:53:56;6.20;90.10
19847;DHT22;10084;50.518;8.588;2024-02-26T07:56:22;6.20;90.10
19847;DHT22;10084;50.518;8.588;2024-02-26T07:58:48;6.20;90.20
19847;DHT22;10084;50.518;8.588;2024-02-26T08:01:14;6.30;90.20
19847;DHT22;10084;50.518;8.588;2024-02-26T08:03:40;6.30;90.50
19847;DHT22;10084;50.518;8.588;2024-02-26T08:06:07;6.30;90.20
19847;DHT22;10084;50.518;8.588;2024-02-26T08:08:33;6.40;90.20
19847;DHT22;10084;50.518;8.588;2024-02-26T08:10:59;6.40;90.20
19847;DHT22;10084;50.518;8.588;2024-02-26T08:13:25;6.40;90.30
19847;DHT22;10084;50.518;8.588;2024-02-26T08:15:52;6.40;90.30
19847;DHT22;10084;50.518;8.588;2024-02-26T08:18:18;6.40;90.20
19847;DHT22;10084;50.518;8.588;2024-02-26T08:20:44;6.50;90.20
19847;DHT22;10084;50.518;8.588;2024-02-26T08:23:10;6.50;90.20
19847;DHT22;10084;50.518;8.588;2024-02-26T08:25:36;6.50;90.20
19847;DHT22;10084;50.518;8.588;2024-02-26T08:28:01;6.50;90.20
19847;DHT22;10084;50.518;8.588;2024-02-26T08:30:27;6.50;90.30
19847;DHT22;10084;50.518;8.588;2024-02-26T08:32:53;6.50;90.30
19847;DHT22;10084;50.518;8.588;2024-02-26T08:35:19;6.50;90.30
19847;DHT22;10084;50.518;8.588;2024-02-26T08:37:45;6.50;90.20
19847;DHT22;10084;50.518;8.588;2024-02-26T08:40:11;6.60;90.30
19847;DHT22;10084;50.518;8.588;2024-02-26T08:42:37;6.60;90.30
19847;DHT22;10084;50.518;8.588;2024-02-26T08:45:03;6.60;90.30
19847;DHT22;10084;50.518;8.588;2024-02-26T08:47:29;6.60;90.30
19847;DHT22;10084;50.518;8.588;2024-02-26T08:49:55;6.60;90.40
19847;DHT22;10084;50.518;8.588;2024-02-26T08:52:21;6.60;90.40
19847;DHT22;10084;50.518;8.588;2024-02-26T08:54:50;6.70;90.50
19847;DHT22;10084;50.518;8.588;2024-02-26T08:57:16;6.70;90.60
19847;DHT22;10084;50.518;8.588;2024-02-26T08:59:41;6.80;90.50
19847;DHT22;10084;50.518;8.588;2024-02-26T09:02:08;6.80;90.50
19847;DHT22;10084;50.518;8.588;2024-02-26T09:04:35;6.80;90.40
19847;DHT22;10084;50.518;8.588;2024-02-26T09:07:01;6.90;90.40
19847;DHT22;10084;50.518;8.588;2024-02-26T09:09:27;6.90;90.40
19847;DHT22;10084;50.518;8.588;2024-02-26T09:11:53;6.90;90.50
19847;DHT22;10084;50.518;8.588;2024-02-26T09:14:20;7.00;90.40
19847;DHT22;10084;50.518;8.588;2024-02-26T09:16:46;7.00;90.40
19847;DHT22;10084;50.518;8.588;2024-02-26T09:19:14;7.10;90.40
19847;DHT22;10084;50.518;8.588;2024-02-26T09:21:44;7.10;90.40
19847;DHT22;10084;50.518;8.588;2024-02-26T09:24:11;7.10;90.40
19847;DHT22;10084;50.518;8.588;2024-02-26T09:26:37;7.10;90.50
19847;DHT22;10084;50.518;8.588;2024-02-26T09:29:03;7.10;90.40
19847;DHT22;10084;50.518;8.588;2024-02-26T09:31:30;7.10;90.30
19847;DHT22;10084;50.518;8.588;2024-02-26T09:33:55;7.10;90.40
19847;DHT22;10084;50.518;8.588;2024-02-26T09:36:21;7.20;90.40
19847;DHT22;10084;50.518;8.588;2024-02-26T09:38:48;7.20;90.40
19847;DHT22;10084;50.518;8.588;2024-02-26T09:41:16;7.20;90.40
19847;DHT22;10084;50.518;8.588;2024-02-26T09:43:45;7.30;90.40
19847;DHT22;10084;50.518;8.588;2024-02-26T09:46:11;7.30;90.40
19847;DHT22;10084;50.518;8.588;2024-02-26T09:48:37;7.30;90.40
19847;DHT22;10084;50.518;8.588;2024-02-26T09:51:04;7.30;90.40
19847;DHT22;10084;50.518;8.588;2024-02-26T09:53:30;7.30;90.40
19847;DHT22;10084;50.518;8.588;2024-02-26T09:56:00;7.30;90.50
19847;DHT22;10084;50.518;8.588;2024-02-26T09:58:28;7.40;90.50
19847;DHT22;10084;50.518;8.588;2024-02-26T10:00:56;7.40;90.50
19847;DHT22;10084;50.518;8.588;2024-02-26T10:03:39;7.50;90.60
19847;DHT22;10084;50.518;8.588;2024-02-26T10:06:07;7.50;90.60
19847;DHT22;10084;50.518;8.588;2024-02-26T10:08:35;7.60;90.60
19847;DHT22;10084;50.518;8.588;2024-02-26T10:11:01;7.60;90.60
19847;DHT22;10084;50.518;8.588;2024-02-26T10:13:27;7.60;90.60
19847;DHT22;10084;50.518;8.588;2024-02-26T10:15:52;7.60;90.60
19847;DHT22;10084;50.518;8.588;2024-02-26T10:18:18;7.70;90.60
19847;DHT22;10084;50.518;8.588;2024-02-26T10:21:01;7.70;90.70
19847;DHT22;10084;50.518;8.588;2024-02-26T10:23:27;7.70;90.70
19847;DHT22;10084;50.518;8.588;2024-02-26T10:25:54;7.80;90.70
19847;DHT22;10084;50.518;8.588;2024-02-26T10:28:21;7.80;90.70
19847;DHT22;10084;50.518;8.588;2024-02-26T10:30:46;7.90;90.70
19847;DHT22;10084;50.518;8.588;2024-02-26T10:33:12;7.90;90.70
19847;DHT22;10084;50.518;8.588;2024-02-26T10:35:47;7.90;90.70
19847;DHT22;10084;50.518;8.588;2024-02-26T10:38:13;8.00;90.70
19847;DHT22;10084;50.518;8.588;2024-02-26T10:40:42;8.00;90.70
19847;DHT22;10084;50.518;8.588;2024-02-26T10:43:08;8.10;90.70
19847;DHT22;10084;50.518;8.588;2024-02-26T10:45:33;8.20;90.70
19847;DHT22;10084;50.518;8.588;2024-02-26T10:48:00;8.20;90.70
19847;DHT22;10084;50.518;8.588;2024-02-26T10:50:26;8.30;90.70
19847;DHT22;10084;50.518;8.588;2024-02-26T10:52:52;8.30;90.70
19847;DHT22;10084;50.518;8.588;2024-02-26T10:55:20;8.30;90.60
19847;DHT22;10084;50.518;8.588;2024-02-26T10:57:47;8.30;90.60
19847;DHT22;10084;50.518;8.588;2024-02-26T11:00:15;8.30;90.60
19847;DHT22;10084;50.518;8.588;2024-02-26T11:02:41;8.30;90.60
19847;DHT22;10084;50.518;8.588;2024-02-26T11:05:08;8.30;90.60
19847;DHT22;10084;50.518;8.588;2024-02-26T11:07:37;8.30;90.70
19847;DHT22;10084;50.518;8.588;2024-02-26T11:10:04;8.30;90.70
19847;DHT22;10084;50.518;8.588;2024-02-26T11:12:32;8.30;90.70
19847;DHT22;10084;50.518;8.588;2024-02-26T11:14:59;8.40;90.90
19847;DHT22;10084;50.518;8.588;2024-02-26T11:17:28;8.40;90.90
19847;DHT22;10084;50.518;8.588;2024-02-26T11:19:57;8.50;91.00
19847;DHT22;10084;50.518;8.588;2024-02-26T11:22:24;8.60;90.90
19847;DHT22;10084;50.518;8.588;2024-02-26T11:24:56;8.70;90.10
19847;DHT22;10084;50.518;8.588;2024-02-26T11:27:31;8.80;90.20
19847;DHT22;10084;50.518;8.588;2024-02-26T11:29:59;9.10;90.10
19847;DHT22;10084;50.518;8.588;2024-02-26T11:32:27;9.20;90.10
19847;DHT22;10084;50.518;8.588;2024-02-26T11:34:56;9.40;90.10
19847;DHT22;10084;50.518;8.588;2024-02-26T11:37:22;9.50;90.00
19847;DHT22;10084;50.518;8.588;2024-02-26T11:39:48;9.60;90.00
19847;DHT22;10084;50.518;8.588;2024-02-26T11:42:16;9.80;89.80
19847;DHT22;10084;50.518;8.588;2024-02-26T11:44:42;9.90;89.60
19847;DHT22;10084;50.518;8.588;2024-02-26T11:47:19;9.90;89.60
19847;DHT22;10084;50.518;8.588;2024-02-26T11:49:45;9.90;89.30
19847;DHT22;10084;50.518;8.588;2024-02-26T11:52:10;9.90;89.30
19847;DHT22;10084;50.518;8.588;2024-02-26T11:54:56;9.90;89.20
19847;DHT22;10084;50.518;8.588;2024-02-26T11:57:42;9.90;89.20
19847;DHT22;10084;50.518;8.588;2024-02-26T12:00:12;9.90;89.10
19847;DHT22;10084;50.518;8.588;2024-02-26T12:02:46;9.90;89.10
19847;DHT22;10084;50.518;8.588;2024-02-26T12:05:15;9.90;89.20
19847;DHT22;10084;50.518;8.588;2024-02-26T12:10:22;9.90;89.10
19847;DHT22;10084;50.518;8.588;2024-02-26T12:15:23;9.90;89.10
19847;DHT22;10084;50.518;8.588;2024-02-26T12:17:49;10.00;89.10
19847;DHT22;10084;50.518;8.588;2024-02-26T12:20:17;10.00;89.10
19847;DHT22;10084;50.518;8.588;2024-02-26T12:22:47;10.00;89.00
19847;DHT22;10084;50.518;8.588;2024-02-26T12:25:14;10.10;89.20
19847;DHT22;10084;50.518;8.588;2024-02-26T12:27:39;10.10;89.10
19847;DHT22;10084;50.518;8.588;2024-02-26T12:30:06;10.10;88.90
19847;DHT22;10084;50.518;8.588;2024-02-26T12:32:32;10.10;88.80
19847;DHT22;10084;50.518;8.588;2024-02-26T12:34:58;10.10;88.80
19847;DHT22;10084;50.518;8.588;2024-02-26T12:37:26;10.10;88.90
19847;DHT22;10084;50.518;8.588;2024-02-26T12:39:52;10.10;88.90
19847;DHT22;10084;50.518;8.588;2024-02-26T12:42:18;10.20;88.90
19847;DHT22;10084;50.518;8.588;2024-02-26T12:44:47;10.20;88.80
19847;DHT22;10084;50.518;8.588;2024-02-26T12:47:12;10.30;88.80
19847;DHT22;10084;50.518;8.588;2024-02-26T12:49:43;10.30;88.70
19847;DHT22;10084;50.518;8.588;2024-02-26T12:52:10;10.40;89.00
19847;DHT22;10084;50.518;8.588;2024-02-26T12:54:36;10.40;89.60
19847;DHT22;10084;50.518;8.588;2024-02-26T12:57:05;10.50;88.90
19847;DHT22;10084;50.518;8.588;2024-02-26T12:59:33;10.60;88.80
19847;DHT22;10084;50.518;8.588;2024-02-26T13:02:00;10.60;88.80
19847;DHT22;10084;50.518;8.588;2024-02-26T13:04:29;10.70;89.40
19847;DHT22;10084;50.518;8.588;2024-02-26T13:06:55;10.70;88.50
19847;DHT22;10084;50.518;8.588;2024-02-26T13:09:21;10.80;88.60
19847;DHT22;10084;50.518;8.588;2024-02-26T13:11:54;10.80;88.50
19847;DHT22;10084;50.518;8.588;2024-02-26T13:14:22;10.90;88.80
19847;DHT22;10084;50.518;8.588;2024-02-26T13:16:55;10.80;88.60
19847;DHT22;10084;50.518;8.588;2024-02-26T13:19:22;10.80;88.70
19847;DHT22;10084;50.518;8.588;2024-02-26T13:21:47;10.80;88.60
19847;DHT22;10084;50.518;8.588;2024-02-26T13:24:13;10.90;88.70
19847;DHT22;10084;50.518;8.588;2024-02-26T13:26:39;10.90;88.70
19847;DHT22;10084;50.518;8.588;2024-02-26T13:29:05;10.90;88.70
19847;DHT22;10084;50.518;8.588;2024-02-26T13:31:31;11.00;88.80
19847;DHT22;10084;50.518;8.588;2024-02-26T13:33:57;11.10;90.20
19847;DHT22;10084;50.518;8.588;2024-02-26T13:36:24;11.50;90.90
19847;DHT22;10084;50.518;8.588;2024-02-26T13:38:53;12.20;90.60
19847;DHT22;10084;50.518;8.588;2024-02-26T13:41:20;13.00;90.40
19847;DHT22;10084;50.518;8.588;2024-02-26T13:43:47;13.60;89.40
19847;DHT22;10084;50.518;8.588;2024-02-26T13:46:13;14.00;89.20
19847;DHT22;10084;50.518;8.588;2024-02-26T13:48:41;14.30;88.10
19847;DHT22;10084;50.518;8.588;2024-02-26T13:51:07;14.80;88.00
19847;DHT22;10084;50.518;8.588;2024-02-26T13:53:32;15.70;87.70
19847;DHT22;10084;50.518;8.588;2024-02-26T13:55:58;16.50;86.40
19847;DHT22;10084;50.518;8.588;2024-02-26T13:58:27;16.50;84.90
19847;DHT22;10084;50.518;8.588;2024-02-26T14:00:53;16.20;85.30
19847;DHT22;10084;50.518;8.588;2024-02-26T14:03:22;16.00;85.70
19847;DHT22;10084;50.518;8.588;2024-02-26T14:05:48;15.80;85.90
19847;DHT22;10084;50.518;8.588;2024-02-26T14:08:14;15.70;85.80
19847;DHT22;10084;50.518;8.588;2024-02-26T14:10:40;15.50;85.50
19847;DHT22;10084;50.518;8.588;2024-02-26T14:13:06;15.40;85.40
19847;DHT22;10084;50.518;8.588;2024-02-26T14:15:32;15.10;85.20
19847;DHT22;10084;50.518;8.588;2024-02-26T14:17:58;14.70;85.40
19847;DHT22;10084;50.518;8.588;2024-02-26T14:20:24;14.40;85.80
19847;DHT22;10084;50.518;8.588;2024-02-26T14:22:51;14.10;86.20
19847;DHT22;10084;50.518;8.588;2024-02-26T14:25:19;13.90;86.50
19847;DHT22;10084;50.518;8.588;2024-02-26T14:27:46;13.70;86.70
19847;DHT22;10084;50.518;8.588;2024-02-26T14:30:12;13.60;87.00
19847;DHT22;10084;50.518;8.588;2024-02-26T14:32:38;13.40;87.00
19847;DHT22;10084;50.518;8.588;2024-02-26T14:35:09;13.30;87.10
19847;DHT22;10084;50.518;8.588;2024-02-26T14:37:36;13.10;87.10
19847;DHT22;10084;50.518;8.588;2024-02-26T14:40:02;13.10;87.30
19847;DHT22;10084;50.518;8.588;2024-02-26T14:42:29;13.00;87.50
19847;DHT22;10084;50.518;8.588;2024-02-26T14:44:55;13.00;87.50
19847;DHT22;10084;50.518;8.588;2024-02-26T14:47:20;13.10;87.50
19847;DHT22;10084;50.518;8.588;2024-02-26T14:49:46;13.20;87.50
19847;DHT22;10084;50.518;8.588;2024-02-26T14:52:14;13.20;87.30
19847;DHT22;10084;50.518;8.588;2024-02-26T14:54:40;13.30;87.20
19847;DHT22;10084;50.518;8.588;2024-02-26T14:57:06;13.40;87.20
19847;DHT22;10084;50.518;8.588;2024-02-26T14:59:33;13.60;87.40
19847;DHT22;10084;50.518;8.588;2024-02-26T15:01:59;13.80;87.20
19847;DHT22;10084;50.518;8.588;2024-02-26T15:04:28;14.00;86.70
19847;DHT22;10084;50.518;8.588;2024-02-26T15:06:53;14.00;86.20
19847;DHT22;10084;50.518;8.588;2024-02-26T15:09:19;14.00;86.00
19847;DHT22;10084;50.518;8.588;2024-02-26T15:11:45;14.00;86.00
19847;DHT22;10084;50.518;8.588;2024-02-26T15:14:11;13.90;86.00
19847;DHT22;10084;50.518;8.588;2024-02-26T15:16:37;13.90;86.00
19847;DHT22;10084;50.518;8.588;2024-02-26T15:19:03;13.80;86.60
19847;DHT22;10084;50.518;8.588;2024-02-26T15:21:29;13.70;85.70
19847;DHT22;10084;50.518;8.588;2024-02-26T15:23:56;13.60;85.80
19847;DHT22;10084;50.518;8.588;2024-02-26T15:26:21;13.50;85.70
19847;DHT22;10084;50.518;8.588;2024-02-26T15:28:48;13.40;85.70
19847;DHT22;10084;50.518;8.588;2024-02-26T15:31:16;13.30;85.60
19847;DHT22;10084;50.518;8.588;2024-02-26T15:33:43;13.10;85.60
19847;DHT22;10084;50.518;8.588;2024-02-26T15:36:09;13.00;85.80
19847;DHT22;10084;50.518;8.588;2024-02-26T15:38:37;12.80;85.90
19847;DHT22;10084;50.518;8.588;2024-02-26T15:41:12;12.70;86.00
19847;DHT22;10084;50.518;8.588;2024-02-26T15:43:39;12.60;86.00